sensor_id;sensor_type;location;lat;lon;timestamp;P1;durP1;ratioP1;P2;durP2;ratioP2
22026;SDS011;11177;50.966;10.070;2023-06-14T00:00:33;4.95;;;3.30;;
22026;SDS011;11177;50.966;10.070;2023-06-14T00:03:01;5.53;;;3.22;;
22026;SDS011;11177;50.966;10.070;2023-06-14T00:05:30;6.50;;;3.30;;
22026;SDS011;11177;50.966;10.070;2023-06-14T00:08:00;7.50;;;3.30;;
22026;SDS011;11177;50.966;10.070;2023-06-14T00:10:27;6.72;;;3.13;;
22026;SDS011;11177;50.966;10.070;2023-06-14T00:12:57;7.90;;;3.40;;
22026;SDS011;11177;50.966;10.070;2023-06-14T00:15:26;6.15;;;3.00;;
22026;SDS011;11177;50.966;10.070;2023-06-14T00:17:53;4.97;;;3.42;;
22026;SDS011;11177;50.966;10.070;2023-06-14T00:20:21;4.03;;;3.38;;
22026;SDS011;11177;50.966;10.070;2023-06-14T00:22:49;6.75;;;3.10;;
22026;SDS011;11177;50.966;10.070;2023-06-14T00:25:17;5.88;;;3.30;;
22026;SDS011;11177;50.966;10.070;2023-06-14T00:27:55;5.65;;;3.20;;
22026;SDS011;11177;50.966;10.070;2023-06-14T00:30:22;5.55;;;3.22;;
22026;SDS011;11177;50.966;10.070;2023-06-14T00:32:50;4.38;;;2.97;;
22026;SDS011;11177;50.966;10.070;2023-06-14T00:35:19;5.68;;;2.97;;
22026;SDS011;11177;50.966;10.070;2023-06-14T00:37:46;4.28;;;3.08;;
22026;SDS011;11177;50.966;10.070;2023-06-14T00:40:13;5.15;;;3.10;;
22026;SDS011;11177;50.966;10.070;2023-06-14T00:42:40;6.18;;;3.25;;
22026;SDS011;11177;50.966;10.070;2023-06-14T00:45:08;6.15;;;3.20;;
22026;SDS011;11177;50.966;10.070;2023-06-14T00:47:37;5.10;;;3.40;;
22026;SDS011;11177;50.966;10.070;2023-06-14T00:50:08;6.60;;;3.28;;
22026;SDS011;11177;50.966;10.070;2023-06-14T00:52:35;6.18;;;3.08;;
22026;SDS011;11177;50.966;10.070;2023-06-14T00:55:02;9.13;;;3.35;;
22026;SDS011;11177;50.966;10.070;2023-06-14T00:57:30;4.63;;;3.40;;
22026;SDS011;11177;50.966;10.070;2023-06-14T00:59:57;3.80;;;3.10;;
22026;SDS011;11177;50.966;10.070;2023-06-14T01:02:24;5.93;;;3.20;;
22026;SDS011;11177;50.966;10.070;2023-06-14T01:04:51;8.85;;;3.35;;
22026;SDS011;11177;50.966;10.070;2023-06-14T01:07:25;6.50;;;3.05;;
22026;SDS011;11177;50.966;10.070;2023-06-14T01:10:41;5.68;;;3.38;;
22026;SDS011;11177;50.966;10.070;2023-06-14T01:13:05;4.05;;;3.50;;
22026;SDS011;11177;50.966;10.070;2023-06-14T01:15:35;6.22;;;3.33;;
22026;SDS011;11177;50.966;10.070;2023-06-14T01:18:04;5.53;;;4.05;;
22026;SDS011;11177;50.966;10.070;2023-06-14T01:20:31;8.70;;;3.85;;
22026;SDS011;11177;50.966;10.070;2023-06-14T01:22:59;4.28;;;3.20;;
22026;SDS011;11177;50.966;10.070;2023-06-14T01:25:26;3.78;;;3.13;;
22026;SDS011;11177;50.966;10.070;2023-06-14T01:28:02;10.02;;;3.65;;
22026;SDS011;11177;50.966;10.070;2023-06-14T01:30:37;7.43;;;3.25;;
22026;SDS011;11177;50.966;10.070;2023-06-14T01:33:05;4.63;;;3.15;;
22026;SDS011;11177;50.966;10.070;2023-06-14T01:35:32;6.40;;;3.22;;
22026;SDS011;11177;50.966;10.070;2023-06-14T01:37:59;4.88;;;3.20;;
22026;SDS011;11177;50.966;10.070;2023-06-14T01:40:26;8.38;;;3.33;;
22026;SDS011;11177;50.966;10.070;2023-06-14T01:42:54;4.88;;;3.30;;
22026;SDS011;11177;50.966;10.070;2023-06-14T01:45:21;7.30;;;3.10;;
22026;SDS011;11177;50.966;10.070;2023-06-14T01:47:48;7.13;;;3.25;;
22026;SDS011;11177;50.966;10.070;2023-06-14T01:50:15;7.65;;;3.30;;
22026;SDS011;11177;50.966;10.070;2023-06-14T01:52:43;5.90;;;3.40;;
22026;SDS011;11177;50.966;10.070;2023-06-14T01:55:09;7.65;;;3.25;;
22026;SDS011;11177;50.966;10.070;2023-06-14T01:57:37;5.40;;;3.40;;
22026;SDS011;11177;50.966;10.070;2023-06-14T02:00:07;3.85;;;3.10;;
22026;SDS011;11177;50.966;10.070;2023-06-14T02:02:38;3.95;;;2.72;;
22026;SDS011;11177;50.966;10.070;2023-06-14T02:05:05;7.18;;;3.28;;
22026;SDS011;11177;50.966;10.070;2023-06-14T02:07:32;5.57;;;3.13;;
22026;SDS011;11177;50.966;10.070;2023-06-14T02:09:59;5.40;;;2.90;;
22026;SDS011;11177;50.966;10.070;2023-06-14T02:12:30;5.57;;;2.95;;
22026;SDS011;11177;50.966;10.070;2023-06-14T02:14:57;5.65;;;2.90;;
22026;SDS011;11177;50.966;10.070;2023-06-14T02:17:24;3.90;;;3.50;;
22026;SDS011;11177;50.966;10.070;2023-06-14T02:19:51;4.88;;;3.45;;
22026;SDS011;11177;50.966;10.070;2023-06-14T02:22:18;5.03;;;3.50;;
22026;SDS011;11177;50.966;10.070;2023-06-14T02:24:47;5.35;;;3.20;;
22026;SDS011;11177;50.966;10.070;2023-06-14T02:27:19;5.13;;;3.17;;
22026;SDS011;11177;50.966;10.070;2023-06-14T02:29:46;4.10;;;3.20;;
22026;SDS011;11177;50.966;10.070;2023-06-14T02:32:14;4.32;;;3.30;;
22026;SDS011;11177;50.966;10.070;2023-06-14T02:34:41;6.20;;;3.70;;
22026;SDS011;11177;50.966;10.070;2023-06-14T02:37:07;7.70;;;3.55;;
22026;SDS011;11177;50.966;10.070;2023-06-14T02:39:35;7.10;;;3.50;;
22026;SDS011;11177;50.966;10.070;2023-06-14T02:42:02;6.47;;;3.30;;
22026;SDS011;11177;50.966;10.070;2023-06-14T02:44:29;5.10;;;3.30;;
22026;SDS011;11177;50.966;10.070;2023-06-14T02:46:56;4.72;;;3.38;;
22026;SDS011;11177;50.966;10.070;2023-06-14T02:49:25;5.75;;;3.10;;
22026;SDS011;11177;50.966;10.070;2023-06-14T02:51:51;5.97;;;3.58;;
22026;SDS011;11177;50.966;10.070;2023-06-14T02:54:18;4.75;;;3.25;;
22026;SDS011;11177;50.966;10.070;2023-06-14T02:56:46;5.22;;;3.60;;
22026;SDS011;11177;50.966;10.070;2023-06-14T02:59:12;6.05;;;3.30;;
22026;SDS011;11177;50.966;10.070;2023-06-14T03:01:40;3.90;;;3.50;;
22026;SDS011;11177;50.966;10.070;2023-06-14T03:04:08;6.10;;;3.50;;
22026;SDS011;11177;50.966;10.070;2023-06-14T03:06:35;3.72;;;3.25;;
22026;SDS011;11177;50.966;10.070;2023-06-14T03:09:03;5.95;;;3.40;;
22026;SDS011;11177;50.966;10.070;2023-06-14T03:11:35;5.68;;;3.42;;
22026;SDS011;11177;50.966;10.070;2023-06-14T03:14:02;9.55;;;3.30;;
22026;SDS011;11177;50.966;10.070;2023-06-14T03:16:35;6.32;;;3.50;;
22026;SDS011;11177;50.966;10.070;2023-06-14T03:19:03;6.70;;;3.30;;
22026;SDS011;11177;50.966;10.070;2023-06-14T03:21:31;7.00;;;3.10;;
22026;SDS011;11177;50.966;10.070;2023-06-14T03:23:59;4.82;;;3.33;;
22026;SDS011;11177;50.966;10.070;2023-06-14T03:26:26;5.95;;;3.15;;
22026;SDS011;11177;50.966;10.070;2023-06-14T03:28:54;7.00;;;3.38;;
22026;SDS011;11177;50.966;10.070;2023-06-14T03:31:21;4.78;;;3.70;;
22026;SDS011;11177;50.966;10.070;2023-06-14T03:33:48;4.07;;;3.10;;
22026;SDS011;11177;50.966;10.070;2023-06-14T03:36:15;4.35;;;3.50;;
22026;SDS011;11177;50.966;10.070;2023-06-14T03:38:41;4.65;;;3.17;;
22026;SDS011;11177;50.966;10.070;2023-06-14T03:41:09;7.35;;;3.38;;
22026;SDS011;11177;50.966;10.070;2023-06-14T03:43:36;4.43;;;2.90;;
22026;SDS011;11177;50.966;10.070;2023-06-14T03:46:03;3.33;;;3.03;;
22026;SDS011;11177;50.966;10.070;2023-06-14T03:48:30;3.22;;;2.85;;
22026;SDS011;11177;50.966;10.070;2023-06-14T03:50:58;5.88;;;3.40;;
22026;SDS011;11177;50.966;10.070;2023-06-14T03:53:27;12.32;;;4.22;;
22026;SDS011;11177;50.966;10.070;2023-06-14T03:55:55;6.68;;;3.40;;
22026;SDS011;11177;50.966;10.070;2023-06-14T03:58:23;4.78;;;3.08;;
22026;SDS011;11177;50.966;10.070;2023-06-14T04:00:50;5.40;;;3.25;;
22026;SDS011;11177;50.966;10.070;2023-06-14T04:03:17;3.28;;;2.80;;
22026;SDS011;11177;50.966;10.070;2023-06-14T04:05:46;3.80;;;3.00;;
22026;SDS011;11177;50.966;10.070;2023-06-14T04:08:16;4.72;;;2.97;;
22026;SDS011;11177;50.966;10.070;2023-06-14T04:10:46;6.80;;;3.33;;
22026;SDS011;11177;50.966;10.070;2023-06-14T04:13:13;3.13;;;2.83;;
22026;SDS011;11177;50.966;10.070;2023-06-14T04:15:40;3.30;;;3.00;;
22026;SDS011;11177;50.966;10.070;2023-06-14T04:18:08;4.15;;;2.97;;
22026;SDS011;11177;50.966;10.070;2023-06-14T04:20:35;3.20;;;2.90;;
22026;SDS011;11177;50.966;10.070;2023-06-14T04:23:16;5.85;;;2.75;;
22026;SDS011;11177;50.966;10.070;2023-06-14T04:25:48;3.67;;;2.90;;
22026;SDS011;11177;50.966;10.070;2023-06-14T04:28:16;4.47;;;2.85;;
22026;SDS011;11177;50.966;10.070;2023-06-14T04:30:43;3.80;;;3.00;;
22026;SDS011;11177;50.966;10.070;2023-06-14T04:33:11;3.08;;;2.83;;
22026;SDS011;11177;50.966;10.070;2023-06-14T04:35:38;3.30;;;2.95;;
22026;SDS011;11177;50.966;10.070;2023-06-14T04:38:06;3.95;;;2.55;;
22026;SDS011;11177;50.966;10.070;2023-06-14T04:40:36;7.13;;;3.15;;
22026;SDS011;11177;50.966;10.070;2023-06-14T04:43:09;6.30;;;2.70;;
22026;SDS011;11177;50.966;10.070;2023-06-14T04:45:38;3.20;;;2.80;;
22026;SDS011;11177;50.966;10.070;2023-06-14T04:48:06;7.90;;;2.80;;
22026;SDS011;11177;50.966;10.070;2023-06-14T04:50:33;8.80;;;3.30;;
22026;SDS011;11177;50.966;10.070;2023-06-14T04:53:01;3.88;;;2.97;;
22026;SDS011;11177;50.966;10.070;2023-06-14T04:55:29;3.55;;;2.92;;
22026;SDS011;11177;50.966;10.070;2023-06-14T04:57:57;3.45;;;2.83;;
22026;SDS011;11177;50.966;10.070;2023-06-14T05:00:25;4.25;;;3.45;;
22026;SDS011;11177;50.966;10.070;2023-06-14T05:02:52;6.20;;;2.78;;
22026;SDS011;11177;50.966;10.070;2023-06-14T05:05:20;4.63;;;2.83;;
22026;SDS011;11177;50.966;10.070;2023-06-14T05:07:47;4.50;;;2.75;;
22026;SDS011;11177;50.966;10.070;2023-06-14T05:10:13;8.07;;;3.10;;
22026;SDS011;11177;50.966;10.070;2023-06-14T05:12:41;4.40;;;3.00;;
22026;SDS011;11177;50.966;10.070;2023-06-14T05:15:10;4.20;;;2.75;;
22026;SDS011;11177;50.966;10.070;2023-06-14T05:17:37;10.52;;;3.15;;
22026;SDS011;11177;50.966;10.070;2023-06-14T05:20:05;5.30;;;2.90;;
22026;SDS011;11177;50.966;10.070;2023-06-14T05:22:33;2.97;;;2.78;;
22026;SDS011;11177;50.966;10.070;2023-06-14T05:25:00;4.50;;;2.75;;
22026;SDS011;11177;50.966;10.070;2023-06-14T05:27:27;5.60;;;3.10;;
22026;SDS011;11177;50.966;10.070;2023-06-14T05:29:54;3.25;;;2.80;;
22026;SDS011;11177;50.966;10.070;2023-06-14T05:32:25;3.90;;;2.92;;
22026;SDS011;11177;50.966;10.070;2023-06-14T05:34:52;3.00;;;2.72;;
22026;SDS011;11177;50.966;10.070;2023-06-14T05:37:19;3.55;;;2.85;;
22026;SDS011;11177;50.966;10.070;2023-06-14T05:39:46;6.35;;;3.20;;
22026;SDS011;11177;50.966;10.070;2023-06-14T05:42:13;4.13;;;3.35;;
22026;SDS011;11177;50.966;10.070;2023-06-14T05:44:40;5.20;;;3.10;;
22026;SDS011;11177;50.966;10.070;2023-06-14T05:47:07;4.80;;;3.42;;
22026;SDS011;11177;50.966;10.070;2023-06-14T05:49:35;7.47;;;3.33;;
22026;SDS011;11177;50.966;10.070;2023-06-14T05:52:02;9.07;;;3.25;;
22026;SDS011;11177;50.966;10.070;2023-06-14T05:54:29;7.82;;;3.50;;
22026;SDS011;11177;50.966;10.070;2023-06-14T05:56:56;11.75;;;3.40;;
22026;SDS011;11177;50.966;10.070;2023-06-14T05:59:27;6.22;;;2.67;;
22026;SDS011;11177;50.966;10.070;2023-06-14T06:01:54;5.53;;;2.67;;
22026;SDS011;11177;50.966;10.070;2023-06-14T06:04:22;3.72;;;2.80;;
22026;SDS011;11177;50.966;10.070;2023-06-14T06:06:50;3.85;;;3.20;;
22026;SDS011;11177;50.966;10.070;2023-06-14T06:09:17;9.07;;;3.03;;
22026;SDS011;11177;50.966;10.070;2023-06-14T06:11:44;4.95;;;3.10;;
22026;SDS011;11177;50.966;10.070;2023-06-14T06:16:45;7.10;;;3.70;;
22026;SDS011;11177;50.966;10.070;2023-06-14T06:19:13;7.05;;;3.33;;
22026;SDS011;11177;50.966;10.070;2023-06-14T06:21:42;5.88;;;3.72;;
22026;SDS011;11177;50.966;10.070;2023-06-14T06:24:10;6.47;;;3.40;;
22026;SDS011;11177;50.966;10.070;2023-06-14T06:26:36;3.58;;;2.85;;
22026;SDS011;11177;50.966;10.070;2023-06-14T06:29:04;3.38;;;3.08;;
22026;SDS011;11177;50.966;10.070;2023-06-14T06:31:31;5.75;;;3.30;;
22026;SDS011;11177;50.966;10.070;2023-06-14T06:33:58;7.32;;;3.47;;
22026;SDS011;11177;50.966;10.070;2023-06-14T06:36:25;5.95;;;2.97;;
22026;SDS011;11177;50.966;10.070;2023-06-14T06:38:52;4.68;;;2.97;;
22026;SDS011;11177;50.966;10.070;2023-06-14T06:41:18;4.10;;;3.08;;
22026;SDS011;11177;50.966;10.070;2023-06-14T06:43:45;3.22;;;2.92;;
22026;SDS011;11177;50.966;10.070;2023-06-14T06:46:13;4.75;;;3.40;;
22026;SDS011;11177;50.966;10.070;2023-06-14T06:48:40;6.22;;;3.15;;
22026;SDS011;11177;50.966;10.070;2023-06-14T06:51:06;8.65;;;3.65;;
22026;SDS011;11177;50.966;10.070;2023-06-14T06:53:33;5.65;;;3.22;;
22026;SDS011;11177;50.966;10.070;2023-06-14T06:56:09;6.55;;;2.90;;
22026;SDS011;11177;50.966;10.070;2023-06-14T06:58:36;7.72;;;3.03;;
22026;SDS011;11177;50.966;10.070;2023-06-14T07:01:03;7.35;;;3.20;;
22026;SDS011;11177;50.966;10.070;2023-06-14T07:03:30;6.32;;;3.60;;
22026;SDS011;11177;50.966;10.070;2023-06-14T07:05:57;7.03;;;3.50;;
22026;SDS011;11177;50.966;10.070;2023-06-14T07:08:25;4.80;;;3.55;;
22026;SDS011;11177;50.966;10.070;2023-06-14T07:10:52;6.68;;;3.20;;
22026;SDS011;11177;50.966;10.070;2023-06-14T07:13:20;7.45;;;3.67;;
22026;SDS011;11177;50.966;10.070;2023-06-14T07:15:47;4.85;;;3.55;;
22026;SDS011;11177;50.966;10.070;2023-06-14T07:18:14;5.18;;;3.65;;
22026;SDS011;11177;50.966;10.070;2023-06-14T07:20:42;8.75;;;3.78;;
22026;SDS011;11177;50.966;10.070;2023-06-14T07:23:09;5.65;;;3.45;;
22026;SDS011;11177;50.966;10.070;2023-06-14T07:25:37;4.63;;;3.30;;
22026;SDS011;11177;50.966;10.070;2023-06-14T07:28:04;3.67;;;3.35;;
22026;SDS011;11177;50.966;10.070;2023-06-14T07:30:31;3.53;;;3.22;;
22026;SDS011;11177;50.966;10.070;2023-06-14T07:32:58;6.63;;;3.72;;
22026;SDS011;11177;50.966;10.070;2023-06-14T07:35:26;5.50;;;3.47;;
22026;SDS011;11177;50.966;10.070;2023-06-14T07:37:52;3.83;;;3.35;;
22026;SDS011;11177;50.966;10.070;2023-06-14T07:40:21;6.72;;;3.20;;
22026;SDS011;11177;50.966;10.070;2023-06-14T07:42:48;4.10;;;3.60;;
22026;SDS011;11177;50.966;10.070;2023-06-14T07:45:16;3.95;;;3.47;;
22026;SDS011;11177;50.966;10.070;2023-06-14T07:47:44;5.50;;;3.70;;
22026;SDS011;11177;50.966;10.070;2023-06-14T07:50:12;5.15;;;3.60;;
22026;SDS011;11177;50.966;10.070;2023-06-14T07:52:40;4.95;;;3.63;;
22026;SDS011;11177;50.966;10.070;2023-06-14T07:55:07;4.07;;;3.55;;
22026;SDS011;11177;50.966;10.070;2023-06-14T07:57:34;3.75;;;3.40;;
22026;SDS011;11177;50.966;10.070;2023-06-14T08:00:01;5.03;;;3.30;;
22026;SDS011;11177;50.966;10.070;2023-06-14T08:02:31;10.85;;;3.33;;
22026;SDS011;11177;50.966;10.070;2023-06-14T08:04:57;6.88;;;3.45;;
22026;SDS011;11177;50.966;10.070;2023-06-14T08:07:25;10.63;;;3.83;;
22026;SDS011;11177;50.966;10.070;2023-06-14T08:09:51;5.80;;;3.67;;
22026;SDS011;11177;50.966;10.070;2023-06-14T08:12:19;5.47;;;3.58;;
22026;SDS011;11177;50.966;10.070;2023-06-14T08:14:46;5.43;;;3.20;;
22026;SDS011;11177;50.966;10.070;2023-06-14T08:19:48;7.30;;;3.40;;
22026;SDS011;11177;50.966;10.070;2023-06-14T08:22:15;5.35;;;3.33;;
22026;SDS011;11177;50.966;10.070;2023-06-14T08:24:43;5.68;;;3.20;;
22026;SDS011;11177;50.966;10.070;2023-06-14T08:27:10;3.42;;;3.08;;
22026;SDS011;11177;50.966;10.070;2023-06-14T08:29:37;3.85;;;3.10;;
22026;SDS011;11177;50.966;10.070;2023-06-14T08:32:07;3.53;;;3.22;;
22026;SDS011;11177;50.966;10.070;2023-06-14T08:34:35;4.72;;;3.38;;
22026;SDS011;11177;50.966;10.070;2023-06-14T08:37:02;6.32;;;3.45;;
22026;SDS011;11177;50.966;10.070;2023-06-14T08:39:29;4.32;;;3.10;;
22026;SDS011;11177;50.966;10.070;2023-06-14T08:41:56;8.20;;;3.50;;
22026;SDS011;11177;50.966;10.070;2023-06-14T08:44:24;6.28;;;3.42;;
22026;SDS011;11177;50.966;10.070;2023-06-14T08:46:51;4.03;;;3.13;;
22026;SDS011;11177;50.966;10.070;2023-06-14T08:49:20;3.80;;;3.25;;
22026;SDS011;11177;50.966;10.070;2023-06-14T08:51:48;4.82;;;3.70;;
22026;SDS011;11177;50.966;10.070;2023-06-14T08:54:18;4.68;;;3.80;;
22026;SDS011;11177;50.966;10.070;2023-06-14T08:56:47;4.50;;;3.28;;
22026;SDS011;11177;50.966;10.070;2023-06-14T08:59:15;3.97;;;3.40;;
22026;SDS011;11177;50.966;10.070;2023-06-14T09:01:44;7.78;;;3.50;;
22026;SDS011;11177;50.966;10.070;2023-06-14T09:04:32;4.78;;;3.50;;
22026;SDS011;11177;50.966;10.070;2023-06-14T09:07:00;4.82;;;3.13;;
22026;SDS011;11177;50.966;10.070;2023-06-14T09:09:27;4.05;;;3.60;;
22026;SDS011;11177;50.966;10.070;2023-06-14T09:11:54;3.50;;;3.20;;
22026;SDS011;11177;50.966;10.070;2023-06-14T09:14:23;4.47;;;3.15;;
22026;SDS011;11177;50.966;10.070;2023-06-14T09:16:53;4.85;;;3.30;;
22026;SDS011;11177;50.966;10.070;2023-06-14T09:19:22;4.53;;;3.40;;
22026;SDS011;11177;50.966;10.070;2023-06-14T09:21:50;5.63;;;3.30;;
22026;SDS011;11177;50.966;10.070;2023-06-14T09:24:20;7.32;;;3.42;;
22026;SDS011;11177;50.966;10.070;2023-06-14T09:26:48;5.95;;;3.17;;
22026;SDS011;11177;50.966;10.070;2023-06-14T09:29:17;4.03;;;3.15;;
22026;SDS011;11177;50.966;10.070;2023-06-14T09:31:47;4.95;;;3.20;;
22026;SDS011;11177;50.966;10.070;2023-06-14T09:34:15;4.78;;;3.22;;
22026;SDS011;11177;50.966;10.070;2023-06-14T09:36:43;6.93;;;3.58;;
22026;SDS011;11177;50.966;10.070;2023-06-14T09:39:10;5.55;;;3.55;;
22026;SDS011;11177;50.966;10.070;2023-06-14T09:41:38;3.60;;;3.30;;
22026;SDS011;11177;50.966;10.070;2023-06-14T09:44:07;5.18;;;3.30;;
22026;SDS011;11177;50.966;10.070;2023-06-14T09:46:45;3.88;;;3.30;;
22026;SDS011;11177;50.966;10.070;2023-06-14T09:49:12;3.45;;;3.15;;
22026;SDS011;11177;50.966;10.070;2023-06-14T09:51:42;4.88;;;3.15;;
22026;SDS011;11177;50.966;10.070;2023-06-14T09:54:13;5.35;;;3.15;;
22026;SDS011;11177;50.966;10.070;2023-06-14T09:56:44;6.32;;;3.17;;
22026;SDS011;11177;50.966;10.070;2023-06-14T09:59:12;6.13;;;3.33;;
22026;SDS011;11177;50.966;10.070;2023-06-14T10:01:41;4.50;;;2.95;;
22026;SDS011;11177;50.966;10.070;2023-06-14T10:04:10;5.13;;;3.40;;
22026;SDS011;11177;50.966;10.070;2023-06-14T10:06:43;4.72;;;3.10;;
22026;SDS011;11177;50.966;10.070;2023-06-14T10:09:13;21.02;;;3.85;;
22026;SDS011;11177;50.966;10.070;2023-06-14T10:11:41;3.50;;;3.20;;
22026;SDS011;11177;50.966;10.070;2023-06-14T10:14:12;5.55;;;2.88;;
22026;SDS011;11177;50.966;10.070;2023-06-14T10:16:50;5.32;;;3.33;;
22026;SDS011;11177;50.966;10.070;2023-06-14T10:19:34;5.57;;;3.03;;
22026;SDS011;11177;50.966;10.070;2023-06-14T10:22:22;3.65;;;2.72;;
22026;SDS011;11177;50.966;10.070;2023-06-14T10:24:56;4.90;;;2.85;;
22026;SDS011;11177;50.966;10.070;2023-06-14T10:27:23;3.42;;;3.00;;
22026;SDS011;11177;50.966;10.070;2023-06-14T10:32:31;4.50;;;3.60;;
22026;SDS011;11177;50.966;10.070;2023-06-14T10:35:08;4.75;;;3.10;;
22026;SDS011;11177;50.966;10.070;2023-06-14T10:37:36;4.90;;;3.15;;
22026;SDS011;11177;50.966;10.070;2023-06-14T10:40:04;5.55;;;3.13;;
22026;SDS011;11177;50.966;10.070;2023-06-14T10:42:35;5.20;;;2.97;;
22026;SDS011;11177;50.966;10.070;2023-06-14T10:45:02;3.60;;;2.90;;
22026;SDS011;11177;50.966;10.070;2023-06-14T10:47:31;4.60;;;3.10;;
22026;SDS011;11177;50.966;10.070;2023-06-14T10:50:05;5.75;;;3.33;;
22026;SDS011;11177;50.966;10.070;2023-06-14T10:52:34;3.40;;;2.90;;
22026;SDS011;11177;50.966;10.070;2023-06-14T10:55:11;3.70;;;2.72;;
22026;SDS011;11177;50.966;10.070;2023-06-14T10:57:46;13.13;;;3.50;;
22026;SDS011;11177;50.966;10.070;2023-06-14T11:00:23;7.15;;;3.15;;
22026;SDS011;11177;50.966;10.070;2023-06-14T11:05:57;4.40;;;2.90;;
22026;SDS011;11177;50.966;10.070;2023-06-14T11:08:33;4.32;;;2.95;;
22026;SDS011;11177;50.966;10.070;2023-06-14T11:11:08;4.63;;;2.83;;
22026;SDS011;11177;50.966;10.070;2023-06-14T11:13:37;8.93;;;3.20;;
22026;SDS011;11177;50.966;10.070;2023-06-14T11:16:15;5.45;;;2.85;;
22026;SDS011;11177;50.966;10.070;2023-06-14T11:18:44;4.55;;;3.03;;
22026;SDS011;11177;50.966;10.070;2023-06-14T11:21:16;6.65;;;2.97;;
22026;SDS011;11177;50.966;10.070;2023-06-14T11:23:51;3.20;;;2.90;;
22026;SDS011;11177;50.966;10.070;2023-06-14T11:26:28;4.85;;;3.03;;
22026;SDS011;11177;50.966;10.070;2023-06-14T11:28:58;5.18;;;2.70;;
22026;SDS011;11177;50.966;10.070;2023-06-14T11:31:27;4.70;;;2.95;;
22026;SDS011;11177;50.966;10.070;2023-06-14T11:33:56;7.03;;;2.70;;
22026;SDS011;11177;50.966;10.070;2023-06-14T11:36:29;4.78;;;2.90;;
22026;SDS011;11177;50.966;10.070;2023-06-14T11:39:01;3.58;;;2.80;;
22026;SDS011;11177;50.966;10.070;2023-06-14T11:41:35;5.75;;;2.80;;
22026;SDS011;11177;50.966;10.070;2023-06-14T11:44:03;4.18;;;2.78;;
22026;SDS011;11177;50.966;10.070;2023-06-14T11:46:31;3.33;;;2.58;;
22026;SDS011;11177;50.966;10.070;2023-06-14T11:48:58;5.88;;;2.72;;
22026;SDS011;11177;50.966;10.070;2023-06-14T11:51:25;4.75;;;2.67;;
22026;SDS011;11177;50.966;10.070;2023-06-14T11:53:52;5.43;;;2.88;;
22026;SDS011;11177;50.966;10.070;2023-06-14T11:56:20;2.88;;;2.67;;
22026;SDS011;11177;50.966;10.070;2023-06-14T11:58:47;6.30;;;2.80;;
22026;SDS011;11177;50.966;10.070;2023-06-14T12:01:16;4.65;;;2.65;;
22026;SDS011;11177;50.966;10.070;2023-06-14T12:03:47;2.83;;;2.63;;
22026;SDS011;11177;50.966;10.070;2023-06-14T12:06:15;4.47;;;2.70;;
22026;SDS011;11177;50.966;10.070;2023-06-14T12:08:42;2.53;;;2.33;;
22026;SDS011;11177;50.966;10.070;2023-06-14T12:11:12;3.97;;;2.67;;
22026;SDS011;11177;50.966;10.070;2023-06-14T12:13:41;2.78;;;2.58;;
22026;SDS011;11177;50.966;10.070;2023-06-14T12:16:08;4.53;;;2.70;;
22026;SDS011;11177;50.966;10.070;2023-06-14T12:18:37;3.08;;;2.67;;
22026;SDS011;11177;50.966;10.070;2023-06-14T12:21:07;4.80;;;2.53;;
22026;SDS011;11177;50.966;10.070;2023-06-14T12:23:49;2.70;;;2.50;;
22026;SDS011;11177;50.966;10.070;2023-06-14T12:26:18;3.75;;;2.45;;
22026;SDS011;11177;50.966;10.070;2023-06-14T12:28:47;3.55;;;2.60;;
22026;SDS011;11177;50.966;10.070;2023-06-14T12:31:15;5.35;;;2.72;;
22026;SDS011;11177;50.966;10.070;2023-06-14T12:33:43;4.78;;;2.60;;
22026;SDS011;11177;50.966;10.070;2023-06-14T12:36:11;3.70;;;2.53;;
22026;SDS011;11177;50.966;10.070;2023-06-14T12:38:38;6.45;;;2.40;;
22026;SDS011;11177;50.966;10.070;2023-06-14T12:41:05;6.35;;;2.53;;
22026;SDS011;11177;50.966;10.070;2023-06-14T12:43:32;3.00;;;2.65;;
22026;SDS011;11177;50.966;10.070;2023-06-14T12:46:00;4.38;;;2.50;;
22026;SDS011;11177;50.966;10.070;2023-06-14T12:48:27;3.97;;;2.40;;
22026;SDS011;11177;50.966;10.070;2023-06-14T12:50:56;3.85;;;2.30;;
22026;SDS011;11177;50.966;10.070;2023-06-14T12:53:23;7.20;;;2.65;;
22026;SDS011;11177;50.966;10.070;2023-06-14T12:55:51;3.42;;;2.35;;
22026;SDS011;11177;50.966;10.070;2023-06-14T12:58:18;3.63;;;2.50;;
22026;SDS011;11177;50.966;10.070;2023-06-14T13:00:46;3.72;;;2.55;;
22026;SDS011;11177;50.966;10.070;2023-06-14T13:03:15;2.85;;;2.65;;
22026;SDS011;11177;50.966;10.070;2023-06-14T13:05:42;4.57;;;2.60;;
22026;SDS011;11177;50.966;10.070;2023-06-14T13:08:10;4.05;;;2.50;;
22026;SDS011;11177;50.966;10.070;2023-06-14T13:10:37;2.60;;;2.10;;
22026;SDS011;11177;50.966;10.070;2023-06-14T13:13:04;3.08;;;2.00;;
22026;SDS011;11177;50.966;10.070;2023-06-14T13:15:31;2.70;;;2.50;;
22026;SDS011;11177;50.966;10.070;2023-06-14T13:17:58;3.60;;;2.53;;
22026;SDS011;11177;50.966;10.070;2023-06-14T13:20:25;4.57;;;2.55;;
22026;SDS011;11177;50.966;10.070;2023-06-14T13:22:52;2.58;;;2.38;;
22026;SDS011;11177;50.966;10.070;2023-06-14T13:25:20;2.75;;;2.10;;
22026;SDS011;11177;50.966;10.070;2023-06-14T13:27:47;3.38;;;2.20;;
22026;SDS011;11177;50.966;10.070;2023-06-14T13:30:14;2.97;;;2.40;;
22026;SDS011;11177;50.966;10.070;2023-06-14T13:32:42;5.45;;;2.53;;
22026;SDS011;11177;50.966;10.070;2023-06-14T13:35:09;4.65;;;2.33;;
22026;SDS011;11177;50.966;10.070;2023-06-14T13:37:38;7.32;;;2.30;;
22026;SDS011;11177;50.966;10.070;2023-06-14T13:40:06;3.97;;;2.47;;
22026;SDS011;11177;50.966;10.070;2023-06-14T13:42:33;4.65;;;2.50;;
22026;SDS011;11177;50.966;10.070;2023-06-14T13:45:02;3.92;;;2.33;;
22026;SDS011;11177;50.966;10.070;2023-06-14T13:47:30;3.78;;;2.17;;
22026;SDS011;11177;50.966;10.070;2023-06-14T13:49:57;3.60;;;2.40;;
22026;SDS011;11177;50.966;10.070;2023-06-14T13:52:27;2.45;;;2.00;;
22026;SDS011;11177;50.966;10.070;2023-06-14T13:54:54;3.33;;;2.47;;
22026;SDS011;11177;50.966;10.070;2023-06-14T13:57:21;3.83;;;2.47;;
22026;SDS011;11177;50.966;10.070;2023-06-14T13:59:48;4.82;;;2.55;;
22026;SDS011;11177;50.966;10.070;2023-06-14T14:02:16;3.50;;;2.20;;
22026;SDS011;11177;50.966;10.070;2023-06-14T14:04:43;2.50;;;2.30;;
22026;SDS011;11177;50.966;10.070;2023-06-14T14:07:11;7.30;;;4.60;;
22026;SDS011;11177;50.966;10.070;2023-06-14T14:09:38;6.55;;;2.95;;
22026;SDS011;11177;50.966;10.070;2023-06-14T14:12:06;3.05;;;2.78;;
22026;SDS011;11177;50.966;10.070;2023-06-14T14:14:33;4.35;;;2.40;;
22026;SDS011;11177;50.966;10.070;2023-06-14T14:17:00;2.65;;;2.45;;
22026;SDS011;11177;50.966;10.070;2023-06-14T14:19:28;2.65;;;2.28;;
22026;SDS011;11177;50.966;10.070;2023-06-14T14:21:55;5.78;;;2.45;;
22026;SDS011;11177;50.966;10.070;2023-06-14T14:24:23;3.97;;;2.42;;
22026;SDS011;11177;50.966;10.070;2023-06-14T14:29:26;3.00;;;2.72;;
22026;SDS011;11177;50.966;10.070;2023-06-14T14:31:55;3.53;;;2.47;;
22026;SDS011;11177;50.966;10.070;2023-06-14T14:34:26;3.55;;;2.50;;
22026;SDS011;11177;50.966;10.070;2023-06-14T14:36:53;3.10;;;2.90;;
22026;SDS011;11177;50.966;10.070;2023-06-14T14:39:20;4.78;;;2.67;;
22026;SDS011;11177;50.966;10.070;2023-06-14T14:41:48;5.38;;;2.63;;
22026;SDS011;11177;50.966;10.070;2023-06-14T14:44:16;16.75;;;3.42;;
22026;SDS011;11177;50.966;10.070;2023-06-14T14:46:44;5.30;;;2.80;;
22026;SDS011;11177;50.966;10.070;2023-06-14T14:49:11;4.85;;;3.00;;
22026;SDS011;11177;50.966;10.070;2023-06-14T14:51:39;3.53;;;2.70;;
22026;SDS011;11177;50.966;10.070;2023-06-14T14:54:07;3.47;;;2.45;;